sensor_id;sensor_type;location;lat;lon;timestamp;P1;durP1;ratioP1;P2;durP2;ratioP2
49396;SDS011;35615;41.410;2.194;2022-08-19T00:01:58;6.68;;;3.42;;
49396;SDS011;35615;41.410;2.194;2022-08-19T00:04:27;5.18;;;3.25;;
49396;SDS011;35615;41.410;2.194;2022-08-19T00:07:01;4.85;;;3.08;;
49396;SDS011;35615;41.410;2.194;2022-08-19T00:09:33;9.30;;;4.30;;
49396;SDS011;35615;41.410;2.194;2022-08-19T00:12:00;8.07;;;3.42;;
49396;SDS011;35615;41.410;2.194;2022-08-19T00:14:28;6.18;;;3.17;;
49396;SDS011;35615;41.410;2.194;2022-08-19T00:16:58;5.97;;;2.85;;
49396;SDS011;35615;41.410;2.194;2022-08-19T00:19:26;5.97;;;2.97;;
49396;SDS011;35615;41.410;2.194;2022-08-19T00:21:54;6.35;;;2.92;;
49396;SDS011;35615;41.410;2.194;2022-08-19T00:24:24;4.40;;;2.53;;
49396;SDS011;35615;41.410;2.194;2022-08-19T00:26:51;4.57;;;2.55;;
49396;SDS011;35615;41.410;2.194;2022-08-19T00:29:23;4.05;;;2.38;;
49396;SDS011;35615;41.410;2.194;2022-08-19T00:31:51;4.40;;;2.77;;
49396;SDS011;35615;41.410;2.194;2022-08-19T00:34:21;7.03;;;2.83;;
49396;SDS011;35615;41.410;2.194;2022-08-19T00:36:49;5.32;;;1.98;;
49396;SDS011;35615;41.410;2.194;2022-08-19T00:39:16;8.43;;;2.80;;
49396;SDS011;35615;41.410;2.194;2022-08-19T00:41:44;4.53;;;2.25;;
49396;SDS011;35615;41.410;2.194;2022-08-19T00:44:16;3.75;;;2.63;;
49396;SDS011;35615;41.410;2.194;2022-08-19T00:46:52;4.82;;;2.78;;
49396;SDS011;35615;41.410;2.194;2022-08-19T00:52:11;6.60;;;2.83;;
49396;SDS011;35615;41.410;2.194;2022-08-19T00:54:42;3.30;;;2.28;;
49396;SDS011;35615;41.410;2.194;2022-08-19T00:57:18;4.43;;;2.40;;
49396;SDS011;35615;41.410;2.194;2022-08-19T01:00:04;7.90;;;2.00;;
49396;SDS011;35615;41.410;2.194;2022-08-19T01:02:39;5.88;;;2.72;;
49396;SDS011;35615;41.410;2.194;2022-08-19T01:05:11;2.40;;;1.88;;
49396;SDS011;35615;41.410;2.194;2022-08-19T01:07:46;4.65;;;2.00;;
49396;SDS011;35615;41.410;2.194;2022-08-19T01:10:15;3.30;;;2.20;;
49396;SDS011;35615;41.410;2.194;2022-08-19T01:12:46;4.53;;;2.30;;
49396;SDS011;35615;41.410;2.194;2022-08-19T01:15:16;3.00;;;2.45;;
49396;SDS011;35615;41.410;2.194;2022-08-19T01:17:46;5.27;;;2.53;;
49396;SDS011;35615;41.410;2.194;2022-08-19T01:20:17;3.05;;;2.10;;
49396;SDS011;35615;41.410;2.194;2022-08-19T01:22:51;4.85;;;2.58;;
49396;SDS011;35615;41.410;2.194;2022-08-19T01:25:33;3.03;;;2.30;;
49396;SDS011;35615;41.410;2.194;2022-08-19T01:28:06;3.10;;;1.83;;
49396;SDS011;35615;41.410;2.194;2022-08-19T01:30:37;7.25;;;3.13;;
49396;SDS011;35615;41.410;2.194;2022-08-19T01:35:37;5.00;;;2.40;;
49396;SDS011;35615;41.410;2.194;2022-08-19T01:38:06;13.63;;;3.35;;
49396;SDS011;35615;41.410;2.194;2022-08-19T01:40:46;4.68;;;2.92;;
49396;SDS011;35615;41.410;2.194;2022-08-19T01:43:13;4.68;;;3.17;;
49396;SDS011;35615;41.410;2.194;2022-08-19T01:45:47;5.68;;;3.05;;
49396;SDS011;35615;41.410;2.194;2022-08-19T01:48:15;7.93;;;3.03;;
49396;SDS011;35615;41.410;2.194;2022-08-19T01:50:43;8.70;;;4.03;;
49396;SDS011;35615;41.410;2.194;2022-08-19T01:53:10;7.88;;;3.80;;
49396;SDS011;35615;41.410;2.194;2022-08-19T01:55:40;8.18;;;3.00;;
49396;SDS011;35615;41.410;2.194;2022-08-19T01:58:12;6.63;;;2.88;;
49396;SDS011;35615;41.410;2.194;2022-08-19T02:00:46;12.90;;;3.08;;
49396;SDS011;35615;41.410;2.194;2022-08-19T02:03:14;6.63;;;2.90;;
49396;SDS011;35615;41.410;2.194;2022-08-19T02:05:44;8.05;;;2.92;;
49396;SDS011;35615;41.410;2.194;2022-08-19T02:08:12;6.43;;;3.00;;
49396;SDS011;35615;41.410;2.194;2022-08-19T02:10:42;4.35;;;2.78;;
49396;SDS011;35615;41.410;2.194;2022-08-19T02:13:11;5.43;;;2.65;;
49396;SDS011;35615;41.410;2.194;2022-08-19T02:15:40;9.20;;;3.13;;
49396;SDS011;35615;41.410;2.194;2022-08-19T02:18:08;7.18;;;3.40;;
49396;SDS011;35615;41.410;2.194;2022-08-19T02:20:38;6.78;;;2.90;;
49396;SDS011;35615;41.410;2.194;2022-08-19T02:23:06;6.82;;;2.72;;
49396;SDS011;35615;41.410;2.194;2022-08-19T02:25:44;5.45;;;2.97;;
49396;SDS011;35615;41.410;2.194;2022-08-19T02:28:16;6.53;;;2.90;;
49396;SDS011;35615;41.410;2.194;2022-08-19T02:30:45;4.97;;;2.88;;
49396;SDS011;35615;41.410;2.194;2022-08-19T02:33:15;7.30;;;2.70;;
49396;SDS011;35615;41.410;2.194;2022-08-19T02:35:45;12.68;;;3.15;;
49396;SDS011;35615;41.410;2.194;2022-08-19T02:38:14;7.18;;;3.00;;
49396;SDS011;35615;41.410;2.194;2022-08-19T02:40:58;5.22;;;2.97;;
49396;SDS011;35615;41.410;2.194;2022-08-19T02:43:28;7.07;;;2.92;;
49396;SDS011;35615;41.410;2.194;2022-08-19T02:46:00;5.70;;;3.00;;
49396;SDS011;35615;41.410;2.194;2022-08-19T02:48:27;7.65;;;3.50;;
49396;SDS011;35615;41.410;2.194;2022-08-19T02:50:55;13.95;;;3.47;;
49396;SDS011;35615;41.410;2.194;2022-08-19T02:53:23;5.63;;;3.78;;
49396;SDS011;35615;41.410;2.194;2022-08-19T02:55:53;11.13;;;3.83;;
49396;SDS011;35615;41.410;2.194;2022-08-19T02:58:21;10.10;;;3.90;;
49396;SDS011;35615;41.410;2.194;2022-08-19T03:00:54;14.15;;;3.58;;
49396;SDS011;35615;41.410;2.194;2022-08-19T03:03:23;15.98;;;4.85;;
49396;SDS011;35615;41.410;2.194;2022-08-19T03:05:50;10.48;;;3.60;;
49396;SDS011;35615;41.410;2.194;2022-08-19T03:08:23;10.15;;;3.30;;
49396;SDS011;35615;41.410;2.194;2022-08-19T03:10:51;7.25;;;3.47;;
49396;SDS011;35615;41.410;2.194;2022-08-19T03:13:19;12.23;;;3.13;;
49396;SDS011;35615;41.410;2.194;2022-08-19T03:15:47;11.02;;;3.30;;
49396;SDS011;35615;41.410;2.194;2022-08-19T03:18:14;8.65;;;2.95;;
49396;SDS011;35615;41.410;2.194;2022-08-19T03:20:44;5.38;;;3.08;;
49396;SDS011;35615;41.410;2.194;2022-08-19T03:23:13;5.55;;;3.08;;
49396;SDS011;35615;41.410;2.194;2022-08-19T03:25:43;8.80;;;2.63;;
49396;SDS011;35615;41.410;2.194;2022-08-19T03:28:28;5.85;;;2.78;;
49396;SDS011;35615;41.410;2.194;2022-08-19T03:31:07;5.72;;;2.50;;
49396;SDS011;35615;41.410;2.194;2022-08-19T03:33:59;11.23;;;2.77;;
49396;SDS011;35615;41.410;2.194;2022-08-19T03:36:26;6.55;;;2.55;;
49396;SDS011;35615;41.410;2.194;2022-08-19T03:38:56;10.52;;;2.33;;
49396;SDS011;35615;41.410;2.194;2022-08-19T03:41:29;3.40;;;2.10;;
49396;SDS011;35615;41.410;2.194;2022-08-19T03:44:10;5.18;;;2.60;;
49396;SDS011;35615;41.410;2.194;2022-08-19T03:46:44;3.88;;;2.30;;
49396;SDS011;35615;41.410;2.194;2022-08-19T03:49:13;6.35;;;2.95;;
49396;SDS011;35615;41.410;2.194;2022-08-19T03:51:43;3.83;;;2.35;;
49396;SDS011;35615;41.410;2.194;2022-08-19T03:54:12;9.25;;;2.75;;
49396;SDS011;35615;41.410;2.194;2022-08-19T03:56:41;6.10;;;2.53;;
49396;SDS011;35615;41.410;2.194;2022-08-19T03:59:14;12.32;;;3.00;;
49396;SDS011;35615;41.410;2.194;2022-08-19T04:01:44;7.97;;;2.50;;
49396;SDS011;35615;41.410;2.194;2022-08-19T04:04:12;6.45;;;1.73;;
49396;SDS011;35615;41.410;2.194;2022-08-19T04:06:39;4.88;;;1.20;;
49396;SDS011;35615;41.410;2.194;2022-08-19T04:09:08;4.55;;;1.48;;
49396;SDS011;35615;41.410;2.194;2022-08-19T04:11:41;6.43;;;1.23;;
49396;SDS011;35615;41.410;2.194;2022-08-19T04:14:17;1.98;;;1.20;;
49396;SDS011;35615;41.410;2.194;2022-08-19T04:16:47;6.03;;;1.30;;
49396;SDS011;35615;41.410;2.194;2022-08-19T04:19:15;6.03;;;1.45;;
49396;SDS011;35615;41.410;2.194;2022-08-19T04:21:45;5.45;;;1.58;;
49396;SDS011;35615;41.410;2.194;2022-08-19T04:24:15;1.95;;;1.50;;
49396;SDS011;35615;41.410;2.194;2022-08-19T04:26:45;5.25;;;1.50;;
49396;SDS011;35615;41.410;2.194;2022-08-19T04:29:14;7.10;;;2.38;;
49396;SDS011;35615;41.410;2.194;2022-08-19T04:31:48;5.32;;;1.65;;
49396;SDS011;35615;41.410;2.194;2022-08-19T04:34:17;6.97;;;1.63;;
49396;SDS011;35615;41.410;2.194;2022-08-19T04:36:51;9.98;;;1.95;;
49396;SDS011;35615;41.410;2.194;2022-08-19T04:39:21;2.00;;;1.40;;
49396;SDS011;35615;41.410;2.194;2022-08-19T04:42:15;3.33;;;1.40;;
49396;SDS011;35615;41.410;2.194;2022-08-19T04:45:03;3.63;;;1.25;;
49396;SDS011;35615;41.410;2.194;2022-08-19T04:47:38;2.58;;;1.30;;
49396;SDS011;35615;41.410;2.194;2022-08-19T04:50:23;2.00;;;1.08;;
49396;SDS011;35615;41.410;2.194;2022-08-19T04:52:51;5.10;;;1.40;;
49396;SDS011;35615;41.410;2.194;2022-08-19T04:55:19;4.97;;;0.95;;
49396;SDS011;35615;41.410;2.194;2022-08-19T04:57:47;4.00;;;0.80;;
49396;SDS011;35615;41.410;2.194;2022-08-19T05:00:14;2.83;;;1.00;;
49396;SDS011;35615;41.410;2.194;2022-08-19T05:02:41;2.78;;;0.75;;
49396;SDS011;35615;41.410;2.194;2022-08-19T05:05:09;2.83;;;1.00;;
49396;SDS011;35615;41.410;2.194;2022-08-19T05:07:36;6.13;;;0.95;;
49396;SDS011;35615;41.410;2.194;2022-08-19T05:10:04;2.92;;;0.98;;
49396;SDS011;35615;41.410;2.194;2022-08-19T05:12:34;2.67;;;0.98;;
49396;SDS011;35615;41.410;2.194;2022-08-19T05:15:03;3.92;;;1.02;;
49396;SDS011;35615;41.410;2.194;2022-08-19T05:17:32;4.78;;;1.40;;
49396;SDS011;35615;41.410;2.194;2022-08-19T05:20:04;7.28;;;1.40;;
49396;SDS011;35615;41.410;2.194;2022-08-19T05:22:54;6.30;;;1.50;;
49396;SDS011;35615;41.410;2.194;2022-08-19T05:25:21;6.22;;;1.33;;
49396;SDS011;35615;41.410;2.194;2022-08-19T05:27:49;6.75;;;1.13;;
49396;SDS011;35615;41.410;2.194;2022-08-19T05:30:16;3.13;;;1.27;;
49396;SDS011;35615;41.410;2.194;2022-08-19T05:33:07;3.35;;;1.30;;
49396;SDS011;35615;41.410;2.194;2022-08-19T05:35:38;5.90;;;1.27;;
49396;SDS011;35615;41.410;2.194;2022-08-19T05:38:06;3.35;;;1.17;;
49396;SDS011;35615;41.410;2.194;2022-08-19T05:40:35;1.15;;;1.05;;
49396;SDS011;35615;41.410;2.194;2022-08-19T05:43:06;4.63;;;1.30;;
49396;SDS011;35615;41.410;2.194;2022-08-19T05:45:39;8.52;;;1.50;;
49396;SDS011;35615;41.410;2.194;2022-08-19T05:48:11;2.00;;;1.20;;
49396;SDS011;35615;41.410;2.194;2022-08-19T05:50:40;2.85;;;1.00;;
49396;SDS011;35615;41.410;2.194;2022-08-19T05:53:09;4.05;;;1.60;;
49396;SDS011;35615;41.410;2.194;2022-08-19T05:55:36;5.10;;;1.33;;
49396;SDS011;35615;41.410;2.194;2022-08-19T05:58:05;2.35;;;1.48;;
49396;SDS011;35615;41.410;2.194;2022-08-19T06:00:35;3.55;;;1.30;;
49396;SDS011;35615;41.410;2.194;2022-08-19T06:03:04;4.43;;;1.42;;
49396;SDS011;35615;41.410;2.194;2022-08-19T06:05:38;6.68;;;1.30;;
49396;SDS011;35615;41.410;2.194;2022-08-19T06:08:17;2.92;;;1.10;;
49396;SDS011;35615;41.410;2.194;2022-08-19T06:10:45;3.40;;;1.17;;
49396;SDS011;35615;41.410;2.194;2022-08-19T06:13:12;3.85;;;1.40;;
49396;SDS011;35615;41.410;2.194;2022-08-19T06:15:39;1.95;;;1.20;;
49396;SDS011;35615;41.410;2.194;2022-08-19T06:18:07;8.38;;;1.92;;
49396;SDS011;35615;41.410;2.194;2022-08-19T06:20:35;3.13;;;1.38;;
49396;SDS011;35615;41.410;2.194;2022-08-19T06:23:21;6.22;;;1.45;;
49396;SDS011;35615;41.410;2.194;2022-08-19T06:25:49;6.55;;;1.33;;
49396;SDS011;35615;41.410;2.194;2022-08-19T06:28:16;2.60;;;1.30;;
49396;SDS011;35615;41.410;2.194;2022-08-19T06:30:45;10.90;;;1.45;;
49396;SDS011;35615;41.410;2.194;2022-08-19T06:33:13;14.02;;;1.70;;
49396;SDS011;35615;41.410;2.194;2022-08-19T06:35:41;6.43;;;1.30;;
49396;SDS011;35615;41.410;2.194;2022-08-19T06:38:08;1.35;;;1.05;;
49396;SDS011;35615;41.410;2.194;2022-08-19T06:40:42;1.80;;;1.00;;
49396;SDS011;35615;41.410;2.194;2022-08-19T06:43:10;2.78;;;1.23;;
49396;SDS011;35615;41.410;2.194;2022-08-19T06:45:39;3.97;;;1.45;;
49396;SDS011;35615;41.410;2.194;2022-08-19T06:48:06;4.63;;;1.13;;
49396;SDS011;35615;41.410;2.194;2022-08-19T06:50:33;6.45;;;1.40;;
49396;SDS011;35615;41.410;2.194;2022-08-19T06:53:06;4.60;;;1.10;;
49396;SDS011;35615;41.410;2.194;2022-08-19T06:55:35;10.75;;;1.98;;
49396;SDS011;35615;41.410;2.194;2022-08-19T06:58:03;3.63;;;1.52;;
49396;SDS011;35615;41.410;2.194;2022-08-19T07:00:32;2.35;;;1.17;;
49396;SDS011;35615;41.410;2.194;2022-08-19T07:03:00;5.50;;;1.10;;
49396;SDS011;35615;41.410;2.194;2022-08-19T07:05:37;12.10;;;1.40;;
49396;SDS011;35615;41.410;2.194;2022-08-19T07:08:12;2.30;;;1.20;;
49396;SDS011;35615;41.410;2.194;2022-08-19T07:10:44;2.35;;;1.00;;
49396;SDS011;35615;41.410;2.194;2022-08-19T07:13:12;4.00;;;1.45;;
49396;SDS011;35615;41.410;2.194;2022-08-19T07:15:40;1.38;;;0.82;;
49396;SDS011;35615;41.410;2.194;2022-08-19T07:18:08;3.22;;;1.20;;
49396;SDS011;35615;41.410;2.194;2022-08-19T07:20:37;4.40;;;1.00;;
49396;SDS011;35615;41.410;2.194;2022-08-19T07:23:07;4.97;;;1.30;;
49396;SDS011;35615;41.410;2.194;2022-08-19T07:25:42;3.67;;;1.00;;
49396;SDS011;35615;41.410;2.194;2022-08-19T07:28:16;8.90;;;1.20;;
49396;SDS011;35615;41.410;2.194;2022-08-19T07:30:50;3.20;;;1.50;;
49396;SDS011;35615;41.410;2.194;2022-08-19T07:33:18;1.80;;;1.10;;
49396;SDS011;35615;41.410;2.194;2022-08-19T07:35:46;1.13;;;0.90;;
49396;SDS011;35615;41.410;2.194;2022-08-19T07:38:13;3.88;;;1.35;;
49396;SDS011;35615;41.410;2.194;2022-08-19T07:40:43;4.00;;;1.67;;
49396;SDS011;35615;41.410;2.194;2022-08-19T07:43:12;3.10;;;1.40;;
49396;SDS011;35615;41.410;2.194;2022-08-19T07:45:43;5.03;;;1.55;;
49396;SDS011;35615;41.410;2.194;2022-08-19T07:48:11;3.88;;;1.30;;
49396;SDS011;35615;41.410;2.194;2022-08-19T07:50:40;5.05;;;1.55;;
49396;SDS011;35615;41.410;2.194;2022-08-19T07:53:08;4.65;;;1.38;;
49396;SDS011;35615;41.410;2.194;2022-08-19T07:55:35;1.88;;;1.27;;
49396;SDS011;35615;41.410;2.194;2022-08-19T07:58:10;1.30;;;1.15;;
49396;SDS011;35615;41.410;2.194;2022-08-19T08:00:40;1.52;;;1.27;;
49396;SDS011;35615;41.410;2.194;2022-08-19T08:03:10;2.35;;;1.15;;
49396;SDS011;35615;41.410;2.194;2022-08-19T08:05:41;1.50;;;1.40;;
49396;SDS011;35615;41.410;2.194;2022-08-19T08:08:27;10.77;;;1.70;;
49396;SDS011;35615;41.410;2.194;2022-08-19T08:11:13;4.70;;;1.98;;
49396;SDS011;35615;41.410;2.194;2022-08-19T08:13:44;4.10;;;1.30;;
49396;SDS011;35615;41.410;2.194;2022-08-19T08:16:25;3.72;;;1.30;;
49396;SDS011;35615;41.410;2.194;2022-08-19T08:18:57;2.55;;;1.58;;
49396;SDS011;35615;41.410;2.194;2022-08-19T08:21:24;1.35;;;1.25;;
49396;SDS011;35615;41.410;2.194;2022-08-19T08:23:51;4.72;;;1.50;;
49396;SDS011;35615;41.410;2.194;2022-08-19T08:26:22;3.10;;;1.13;;
49396;SDS011;35615;41.410;2.194;2022-08-19T08:28:53;2.67;;;1.20;;
49396;SDS011;35615;41.410;2.194;2022-08-19T08:31:24;1.83;;;1.25;;
49396;SDS011;35615;41.410;2.194;2022-08-19T08:33:51;5.60;;;1.58;;
49396;SDS011;35615;41.410;2.194;2022-08-19T08:36:18;4.88;;;1.90;;
49396;SDS011;35615;41.410;2.194;2022-08-19T08:38:45;5.95;;;1.95;;
49396;SDS011;35615;41.410;2.194;2022-08-19T08:41:18;4.15;;;1.80;;
49396;SDS011;35615;41.410;2.194;2022-08-19T08:43:57;3.53;;;1.50;;
49396;SDS011;35615;41.410;2.194;2022-08-19T08:46:39;4.63;;;1.60;;
49396;SDS011;35615;41.410;2.194;2022-08-19T08:49:29;8.77;;;1.70;;
49396;SDS011;35615;41.410;2.194;2022-08-19T08:52:05;3.75;;;1.27;;
49396;SDS011;35615;41.410;2.194;2022-08-19T08:54:42;6.03;;;1.23;;
49396;SDS011;35615;41.410;2.194;2022-08-19T08:57:29;3.53;;;1.27;;
49396;SDS011;35615;41.410;2.194;2022-08-19T09:00:09;4.68;;;1.00;;
49396;SDS011;35615;41.410;2.194;2022-08-19T09:02:42;2.00;;;1.17;;
49396;SDS011;35615;41.410;2.194;2022-08-19T09:05:16;4.07;;;1.92;;
49396;SDS011;35615;41.410;2.194;2022-08-19T09:10:52;6.40;;;1.38;;
49396;SDS011;35615;41.410;2.194;2022-08-19T09:13:30;6.83;;;1.00;;
49396;SDS011;35615;41.410;2.194;2022-08-19T09:16:19;2.90;;;1.48;;
49396;SDS011;35615;41.410;2.194;2022-08-19T09:18:55;6.75;;;1.05;;
49396;SDS011;35615;41.410;2.194;2022-08-19T09:21:33;9.20;;;1.55;;
49396;SDS011;35615;41.410;2.194;2022-08-19T09:24:01;2.67;;;1.10;;
49396;SDS011;35615;41.410;2.194;2022-08-19T09:26:31;3.53;;;1.40;;
49396;SDS011;35615;41.410;2.194;2022-08-19T09:29:17;3.28;;;1.45;;
49396;SDS011;35615;41.410;2.194;2022-08-19T09:31:44;3.28;;;1.60;;
49396;SDS011;35615;41.410;2.194;2022-08-19T09:34:11;1.30;;;1.20;;
49396;SDS011;35615;41.410;2.194;2022-08-19T09:36:47;1.85;;;1.10;;
49396;SDS011;35615;41.410;2.194;2022-08-19T09:39:20;3.38;;;1.50;;
49396;SDS011;35615;41.410;2.194;2022-08-19T09:41:48;5.70;;;1.30;;
49396;SDS011;35615;41.410;2.194;2022-08-19T09:44:16;2.97;;;1.65;;
49396;SDS011;35615;41.410;2.194;2022-08-19T09:46:44;1.38;;;1.10;;
49396;SDS011;35615;41.410;2.194;2022-08-19T09:49:14;1.60;;;1.33;;
49396;SDS011;35615;41.410;2.194;2022-08-19T09:51:44;2.30;;;1.70;;
49396;SDS011;35615;41.410;2.194;2022-08-19T09:54:16;1.45;;;1.35;;
49396;SDS011;35615;41.410;2.194;2022-08-19T09:56:51;1.75;;;1.42;;
49396;SDS011;35615;41.410;2.194;2022-08-19T09:59:19;2.10;;;1.27;;
49396;SDS011;35615;41.410;2.194;2022-08-19T10:01:47;5.80;;;1.13;;
49396;SDS011;35615;41.410;2.194;2022-08-19T10:04:14;5.28;;;2.10;;
49396;SDS011;35615;41.410;2.194;2022-08-19T10:06:46;4.50;;;1.52;;
49396;SDS011;35615;41.410;2.194;2022-08-19T10:09:19;2.35;;;1.20;;
49396;SDS011;35615;41.410;2.194;2022-08-19T10:11:59;1.10;;;0.93;;
49396;SDS011;35615;41.410;2.194;2022-08-19T10:14:28;1.15;;;1.05;;
49396;SDS011;35615;41.410;2.194;2022-08-19T10:16:56;3.03;;;0.90;;
49396;SDS011;35615;41.410;2.194;2022-08-19T10:19:24;4.40;;;1.60;;
49396;SDS011;35615;41.410;2.194;2022-08-19T10:21:53;2.25;;;1.30;;
49396;SDS011;35615;41.410;2.194;2022-08-19T10:24:26;1.13;;;1.02;;
49396;SDS011;35615;41.410;2.194;2022-08-19T10:26:55;5.47;;;0.80;;
49396;SDS011;35615;41.410;2.194;2022-08-19T10:29:26;2.85;;;1.50;;
49396;SDS011;35615;41.410;2.194;2022-08-19T10:34:29;2.42;;;1.45;;
49396;SDS011;35615;41.410;2.194;2022-08-19T10:36:57;3.83;;;1.65;;
49396;SDS011;35615;41.410;2.194;2022-08-19T10:39:31;5.13;;;1.05;;
49396;SDS011;35615;41.410;2.194;2022-08-19T10:42:09;1.63;;;0.90;;
49396;SDS011;35615;41.410;2.194;2022-08-19T10:44:40;3.97;;;1.33;;
49396;SDS011;35615;41.410;2.194;2022-08-19T10:47:08;2.90;;;1.40;;
49396;SDS011;35615;41.410;2.194;2022-08-19T10:49:49;1.88;;;1.35;;
49396;SDS011;35615;41.410;2.194;2022-08-19T10:52:41;10.18;;;1.80;;
49396;SDS011;35615;41.410;2.194;2022-08-19T10:55:16;4.68;;;1.70;;
49396;SDS011;35615;41.410;2.194;2022-08-19T10:58:09;1.80;;;1.30;;
49396;SDS011;35615;41.410;2.194;2022-08-19T11:00:39;6.28;;;1.58;;
49396;SDS011;35615;41.410;2.194;2022-08-19T11:03:10;6.10;;;1.80;;
49396;SDS011;35615;41.410;2.194;2022-08-19T11:05:38;1.40;;;1.30;;
49396;SDS011;35615;41.410;2.194;2022-08-19T11:08:08;4.07;;;1.48;;
49396;SDS011;35615;41.410;2.194;2022-08-19T11:10:50;1.80;;;1.50;;
49396;SDS011;35615;41.410;2.194;2022-08-19T11:13:28;3.80;;;1.52;;
49396;SDS011;35615;41.410;2.194;2022-08-19T11:18:41;8.95;;;2.00;;
49396;SDS011;35615;41.410;2.194;2022-08-19T11:21:22;3.97;;;1.65;;
49396;SDS011;35615;41.410;2.194;2022-08-19T11:24:13;6.07;;;1.58;;
49396;SDS011;35615;41.410;2.194;2022-08-19T11:27:16;9.10;;;2.20;;
49396;SDS011;35615;41.410;2.194;2022-08-19T11:30:21;5.47;;;1.50;;
49396;SDS011;35615;41.410;2.194;2022-08-19T11:32:53;4.90;;;2.08;;
49396;SDS011;35615;41.410;2.194;2022-08-19T11:35:29;7.53;;;1.88;;
49396;SDS011;35615;41.410;2.194;2022-08-19T11:38:06;4.57;;;1.48;;
49396;SDS011;35615;41.410;2.194;2022-08-19T11:40:37;5.78;;;1.83;;
49396;SDS011;35615;41.410;2.194;2022-08-19T11:43:14;4.60;;;1.60;;
49396;SDS011;35615;41.410;2.194;2022-08-19T11:45:46;3.97;;;1.45;;
49396;SDS011;35615;41.410;2.194;2022-08-19T11:48:15;3.50;;;1.60;;
49396;SDS011;35615;41.410;2.194;2022-08-19T11:50:42;4.18;;;1.40;;
49396;SDS011;35615;41.410;2.194;2022-08-19T11:53:10;13.25;;;1.98;;
49396;SDS011;35615;41.410;2.194;2022-08-19T11:55:38;1.80;;;1.52;;
49396;SDS011;35615;41.410;2.194;2022-08-19T11:58:09;4.82;;;1.23;;
49396;SDS011;35615;41.410;2.194;2022-08-19T12:00:44;2.70;;;1.25;;
49396;SDS011;35615;41.410;2.194;2022-08-19T12:03:12;4.15;;;1.40;;
49396;SDS011;35615;41.410;2.194;2022-08-19T12:05:40;5.20;;;2.03;;
49396;SDS011;35615;41.410;2.194;2022-08-19T12:08:12;2.80;;;1.75;;
49396;SDS011;35615;41.410;2.194;2022-08-19T12:10:42;2.67;;;1.92;;
49396;SDS011;35615;41.410;2.194;2022-08-19T12:13:11;3.35;;;1.50;;
49396;SDS011;35615;41.410;2.194;2022-08-19T12:15:42;2.17;;;1.75;;
49396;SDS011;35615;41.410;2.194;2022-08-19T12:18:09;4.63;;;3.10;;
49396;SDS011;35615;41.410;2.194;2022-08-19T12:20:38;2.50;;;1.70;;
49396;SDS011;35615;41.410;2.194;2022-08-19T12:23:07;2.47;;;1.60;;
49396;SDS011;35615;41.410;2.194;2022-08-19T12:25:42;5.68;;;2.20;;
49396;SDS011;35615;41.410;2.194;2022-08-19T12:28:17;6.25;;;2.75;;
49396;SDS011;35615;41.410;2.194;2022-08-19T12:30:48;3.57;;;2.03;;
49396;SDS011;35615;41.410;2.194;2022-08-19T12:33:19;5.80;;;2.60;;
49396;SDS011;35615;41.410;2.194;2022-08-19T12:35:52;4.80;;;2.03;;
49396;SDS011;35615;41.410;2.194;2022-08-19T12:38:20;2.47;;;1.92;;
49396;SDS011;35615;41.410;2.194;2022-08-19T12:40:50;2.47;;;1.55;;
49396;SDS011;35615;41.410;2.194;2022-08-19T12:43:25;6.03;;;1.83;;
49396;SDS011;35615;41.410;2.194;2022-08-19T12:45:55;4.78;;;1.70;;
49396;SDS011;35615;41.410;2.194;2022-08-19T12:48:22;1.65;;;1.52;;
49396;SDS011;35615;41.410;2.194;2022-08-19T12:50:59;2.53;;;1.67;;
49396;SDS011;35615;41.410;2.194;2022-08-19T12:53:28;2.75;;;1.80;;
49396;SDS011;35615;41.410;2.194;2022-08-19T12:55:56;3.88;;;2.30;;
49396;SDS011;35615;41.410;2.194;2022-08-19T12:58:26;5.35;;;2.00;;
49396;SDS011;35615;41.410;2.194;2022-08-19T13:00:55;5.32;;;2.70;;
49396;SDS011;35615;41.410;2.194;2022-08-19T13:03:25;4.85;;;2.90;;
49396;SDS011;35615;41.410;2.194;2022-08-19T13:05:55;3.05;;;2.20;;
49396;SDS011;35615;41.410;2.194;2022-08-19T13:08:23;3.97;;;1.90;;
49396;SDS011;35615;41.410;2.194;2022-08-19T13:10:50;6.05;;;2.10;;
49396;SDS011;35615;41.410;2.194;2022-08-19T13:13:17;8.73;;;4.50;;
49396;SDS011;35615;41.410;2.194;2022-08-19T13:15:46;6.00;;;2.58;;
49396;SDS011;35615;41.410;2.194;2022-08-19T13:18:14;6.10;;;2.28;;
49396;SDS011;35615;41.410;2.194;2022-08-19T13:20:42;4.13;;;2.38;;
49396;SDS011;35615;41.410;2.194;2022-08-19T13:23:18;3.33;;;2.05;;
49396;SDS011;35615;41.410;2.194;2022-08-19T13:25:54;2.85;;;1.98;;
49396;SDS011;35615;41.410;2.194;2022-08-19T13:28:23;2.55;;;2.13;;
49396;SDS011;35615;41.410;2.194;2022-08-19T13:30:54;3.13;;;1.80;;
49396;SDS011;35615;41.410;2.194;2022-08-19T13:33:46;5.68;;;2.08;;
49396;SDS011;35615;41.410;2.194;2022-08-19T13:36:13;3.13;;;1.95;;
49396;SDS011;35615;41.410;2.194;2022-08-19T13:38:40;7.32;;;2.50;;
49396;SDS011;35615;41.410;2.194;2022-08-19T13:41:08;2.30;;;2.10;;
49396;SDS011;35615;41.410;2.194;2022-08-19T13:43:40;5.10;;;2.67;;
49396;SDS011;35615;41.410;2.194;2022-08-19T13:46:11;3.20;;;2.00;;
49396;SDS011;35615;41.410;2.194;2022-08-19T13:48:42;3.80;;;2.67;;
49396;SDS011;35615;41.410;2.194;2022-08-19T13:51:10;6.50;;;1.90;;
49396;SDS011;35615;41.410;2.194;2022-08-19T13:53:37;5.13;;;1.98;;
49396;SDS011;35615;41.410;2.194;2022-08-19T13:56:09;4.57;;;1.70;;
49396;SDS011;35615;41.410;2.194;2022-08-19T13:58:38;6.22;;;2.30;;
49396;SDS011;35615;41.410;2.194;2022-08-19T14:01:06;4.00;;;2.03;;
49396;SDS011;35615;41.410;2.194;2022-08-19T14:03:36;1.80;;;1.38;;
49396;SDS011;35615;41.410;2.194;2022-08-19T14:06:04;9.85;;;1.70;;
49396;SDS011;35615;41.410;2.194;2022-08-19T14:08:33;5.28;;;1.65;;
49396;SDS011;35615;41.410;2.194;2022-08-19T14:11:01;1.60;;;1.50;;
49396;SDS011;35615;41.410;2.194;2022-08-19T14:13:32;2.67;;;1.40;;
49396;SDS011;35615;41.410;2.194;2022-08-19T14:16:00;4.72;;;1.95;;
49396;SDS011;35615;41.410;2.194;2022-08-19T14:18:27;4.07;;;2.03;;
49396;SDS011;35615;41.410;2.194;2022-08-19T14:20:56;2.67;;;1.35;;
49396;SDS011;35615;41.410;2.194;2022-08-19T14:23:24;4.95;;;1.92;;
49396;SDS011;35615;41.410;2.194;2022-08-19T14:25:51;8.07;;;1.85;;
49396;SDS011;35615;41.410;2.194;2022-08-19T14:28:19;4.25;;;1.55;;
49396;SDS011;35615;41.410;2.194;2022-08-19T14:30:53;1.58;;;1.40;;
49396;SDS011;35615;41.410;2.194;2022-08-19T14:33:22;5.05;;;1.58;;
49396;SDS011;35615;41.410;2.194;2022-08-19T14:35:56;11.60;;;2.63;;
49396;SDS011;35615;41.410;2.194;2022-08-19T14:38:25;2.22;;;1.45;;
49396;SDS011;35615;41.410;2.194;2022-08-19T14:41:11;4.43;;;1.60;;
49396;SDS011;35615;41.410;2.194;2022-08-19T14:43:46;6.53;;;1.60;;
49396;SDS011;35615;41.410;2.194;2022-08-19T14:46:17;1.20;;;1.13;;
49396;SDS011;35615;41.410;2.194;2022-08-19T14:48:47;5.22;;;1.45;;
49396;SDS011;35615;41.410;2.194;2022-08-19T14:51:18;5.55;;;1.55;;
49396;SDS011;35615;41.410;2.194;2022-08-19T14:53:46;3.53;;;1.25;;
49396;SDS011;35615;41.410;2.194;2022-08-19T14:56:17;1.45;;;1.35;;
49396;SDS011;35615;41.410;2.194;2022-08-19T14:58:48;1.92;;;1.17;;
49396;SDS011;35615;41.410;2.194;2022-08-19T15:01:19;3.17;;;1.65;;
49396;SDS011;35615;41.410;2.194;2022-08-19T15:03:48;6.00;;;1.55;;
49396;SDS011;35615;41.410;2.194;2022-08-19T15:06:16;3.10;;;1.42;;
49396;SDS011;35615;41.410;2.194;2022-08-19T15:08:43;3.28;;;1.20;;
49396;SDS011;35615;41.410;2.194;2022-08-19T15:11:15;3.70;;;1.48;;
49396;SDS011;35615;41.410;2.194;2022-08-19T15:13:44;3.47;;;1.27;;
49396;SDS011;35615;41.410;2.194;2022-08-19T15:16:13;1.25;;;0.90;;
49396;SDS011;35615;41.410;2.194;2022-08-19T15:18:44;3.38;;;1.10;;
49396;SDS011;35615;41.410;2.194;2022-08-19T15:21:13;1.92;;;1.05;;
49396;SDS011;35615;41.410;2.194;2022-08-19T15:23:53;2.13;;;1.00;;
49396;SDS011;35615;41.410;2.194;2022-08-19T15:26:23;2.55;;;1.17;;
49396;SDS011;35615;41.410;2.194;2022-08-19T15:28:52;2.25;;;1.10;;